KGJT/GJT METAR and TAF weather

Enter ICAO airport designator
Station Type Date Time Source
KGJT METAR 2021/09/25 11:53 UTC NOAA

KGJT 251153Z 06004KT 10SM CLR 12/M03 A3018 RMK AO2 SLP162 T01221033 10156 20111 53005


Station Type Date Time Source
KGJT Decoded METAR 2021/09/25 11:53 UTC NOAA

GRAND JUNCTION WALKER FIELD, CO, United States (KGJT) 39-08N 108-32W 1452M
Sep 25, 2021 - 07:53 AM EDT / 2021.09.25 1153 UTC
Wind: from the ENE (060 degrees) at 5 MPH (4 KT):0
Visibility: 10 mile(s):0
Sky conditions: clear
Temperature: 54.0 F (12.2 C)
Dew Point: 26.1 F (-3.3 C)
Relative Humidity: 33%
Pressure (altimeter): 30.18 in. Hg (1022 hPa)
Pressure tendency: 0.01 inches (0.5 hPa) higher than three hours ago
ob: KGJT 251153Z 06004KT 10SM CLR 12/M03 A3018 RMK AO2 SLP162 T01221033 10156 20111 53005
cycle: 12

Station Type Date Time Source
KGJT TAF 2021/09/25 12:28 UTC NOAA

TAF KGJT 251126Z 2512/2612 12010KT P6SM SKC
FM252000 27008G18KT P6SM SKC
FM260300 10008KT P6SM SKC

Example: see airport list